createdAt,value
2019-03-03T00:04:43.302Z,34.00
2019-03-03T00:09:48.284Z,40.97
2019-03-03T00:14:52.981Z,34.97
2019-03-03T00:19:58.667Z,39.63
2019-03-03T00:25:03.544Z,35.03
2019-03-03T00:30:08.680Z,39.07
2019-03-03T00:35:13.593Z,38.63
2019-03-03T00:40:33.777Z,40.10
2019-03-03T00:45:47.199Z,42.40
2019-03-03T00:51:16.885Z,41.13
2019-03-03T00:56:35.079Z,37.20
2019-03-03T01:01:45.447Z,43.53
2019-03-03T01:07:08.385Z,42.73
2019-03-03T01:12:38.371Z,45.10
2019-03-03T01:17:51.771Z,43.70
2019-03-03T01:23:08.608Z,42.48
2019-03-03T01:28:13.330Z,45.57
2019-03-03T01:33:18.047Z,41.67
2019-03-03T01:38:23.287Z,44.20
2019-03-03T01:43:27.996Z,41.93
2019-03-03T01:48:33.007Z,47.03
2019-03-03T01:53:37.763Z,45.63
2019-03-03T01:58:42.556Z,45.73
2019-03-03T02:03:48.248Z,49.10
2019-03-03T02:08:53.020Z,44.13
2019-03-03T02:13:57.724Z,42.87
2019-03-03T02:19:02.426Z,44.37
2019-03-03T02:24:07.070Z,45.00
2019-03-03T02:29:11.814Z,46.37
2019-03-03T02:34:16.594Z,51.33
2019-03-03T02:39:21.519Z,47.50
2019-03-03T02:44:26.320Z,48.50
2019-03-03T02:49:31.386Z,44.37
2019-03-03T02:54:37.118Z,47.00
2019-03-03T02:59:42.790Z,43.80
2019-03-03T03:04:47.573Z,52.30
2019-03-03T03:10:04.205Z,53.70
2019-03-03T03:15:15.748Z,52.00
2019-03-03T03:20:38.381Z,47.53
2019-03-03T03:26:05.182Z,45.57
2019-03-03T03:31:28.480Z,50.43
2019-03-03T03:36:55.272Z,52.33
2019-03-03T03:42:10.357Z,47.40
2019-03-03T03:47:20.490Z,51.85
2019-03-03T03:52:59.686Z,49.13
2019-03-03T03:58:22.565Z,44.53
2019-03-03T04:03:49.630Z,46.97
2019-03-03T04:09:01.590Z,45.23
2019-03-03T04:14:35.119Z,44.53
2019-03-03T04:20:07.911Z,47.20
2019-03-03T04:25:30.842Z,38.00
2019-03-03T04:30:47.737Z,42.17
2019-03-03T04:36:23.430Z,46.57
2019-03-03T04:41:47.253Z,40.50
2019-03-03T04:47:09.996Z,39.23
2019-03-03T04:52:23.804Z,38.50
2019-03-03T04:57:37.989Z,37.90
2019-03-03T05:02:58.580Z,36.57
2019-03-03T05:08:11.093Z,33.50
2019-03-03T05:13:22.694Z,38.03
2019-03-03T05:18:37.882Z,36.13
2019-03-03T05:23:42.600Z,37.10
2019-03-03T05:28:47.311Z,30.63
2019-03-03T05:33:52.086Z,28.03
2019-03-03T05:38:56.908Z,30.03
2019-03-03T05:44:01.632Z,25.23
2019-03-03T05:49:06.642Z,26.70
2019-03-03T05:54:11.347Z,25.87
2019-03-03T05:59:16.286Z,23.80
2019-03-03T06:04:20.966Z,22.43
2019-03-03T06:09:25.726Z,20.60
2019-03-03T06:14:30.438Z,21.07
2019-03-03T06:19:35.150Z,19.07
2019-03-03T06:24:40.125Z,13.63
2019-03-03T06:29:44.891Z,15.23
2019-03-03T06:34:50.601Z,14.40
2019-03-03T06:39:55.427Z,13.20
2019-03-03T06:45:00.314Z,13.07
2019-03-03T06:50:06.182Z,11.83
2019-03-03T06:55:11.117Z,9.17
2019-03-03T07:00:17.222Z,13.95
2019-03-03T07:05:22.197Z,10.75
2019-03-03T07:10:26.998Z,12.47
2019-03-03T07:15:31.921Z,13.97
2019-03-03T07:20:36.661Z,8.77
2019-03-03T07:25:41.567Z,16.50
2019-03-03T07:30:49.228Z,10.63
2019-03-03T07:35:53.980Z,14.10
2019-03-03T07:40:58.886Z,15.60
2019-03-03T07:46:04.640Z,8.60
2019-03-03T07:51:09.651Z,12.20
2019-03-03T07:56:14.515Z,10.90
2019-03-03T08:01:19.264Z,7.33
2019-03-03T08:06:24.345Z,8.30
2019-03-03T08:11:29.756Z,14.80
2019-03-03T08:16:34.559Z,15.53
2019-03-03T08:21:39.241Z,10.47
2019-03-03T08:26:44.024Z,9.40
2019-03-03T08:31:48.787Z,11.33
2019-03-03T08:36:53.594Z,9.27
2019-03-03T08:42:03.624Z,15.43
2019-03-03T08:47:26.161Z,8.83
2019-03-03T08:52:49.356Z,9.97
2019-03-03T08:58:28.402Z,7.73
2019-03-03T09:03:55.054Z,10.77
2019-03-03T09:09:10.430Z,10.13
2019-03-03T09:14:40.887Z,11.03
2019-03-03T09:20:16.892Z,10.43
2019-03-03T09:25:45.586Z,12.63
2019-03-03T09:31:08.444Z,9.50
2019-03-03T09:36:41.671Z,13.70
2019-03-03T09:42:23.776Z,12.60
2019-03-03T09:47:34.893Z,9.33
2019-03-03T09:52:51.309Z,9.43
2019-03-03T09:58:18.141Z,15.43
2019-03-03T10:03:29.953Z,13.10
2019-03-03T10:09:03.109Z,10.83
2019-03-03T10:14:27.049Z,10.37
2019-03-03T10:19:48.281Z,9.83
2019-03-03T10:24:59.204Z,9.13
2019-03-03T10:30:32.606Z,11.23
2019-03-03T10:35:55.591Z,7.77
2019-03-03T10:41:25.344Z,9.90
2019-03-03T10:46:37.181Z,6.90
2019-03-03T10:51:50.617Z,13.60
2019-03-03T10:57:03.603Z,11.60
2019-03-03T11:02:16.932Z,8.27
2019-03-03T11:07:40.944Z,9.00
2019-03-03T11:13:12.384Z,10.23
2019-03-03T11:18:35.152Z,6.60
2019-03-03T11:24:02.158Z,15.10
2019-03-03T11:29:20.185Z,14.83
2019-03-03T11:34:45.644Z,8.97
2019-03-03T11:39:56.255Z,9.40
2019-03-03T11:45:16.401Z,14.63
2019-03-03T11:50:36.602Z,15.45
2019-03-03T11:55:56.683Z,13.53
2019-03-03T12:01:19.491Z,9.67
2019-03-03T12:06:43.404Z,10.30
2019-03-03T12:12:19.874Z,9.93
2019-03-03T12:17:49.210Z,14.50
2019-03-03T12:23:17.235Z,11.40
2019-03-03T12:28:32.181Z,13.05
2019-03-03T12:33:56.185Z,14.47
2019-03-03T12:39:07.330Z,11.43
2019-03-03T12:44:27.034Z,11.73
2019-03-03T12:49:57.161Z,16.07
2019-03-03T12:55:21.776Z,14.70
2019-03-03T13:01:00.815Z,11.57
2019-03-03T13:06:24.524Z,12.10
2019-03-03T13:11:51.511Z,14.20
2019-03-03T13:17:14.206Z,13.20
2019-03-03T13:22:27.091Z,17.05
2019-03-03T13:27:55.919Z,12.80
2019-03-03T13:33:20.178Z,9.50
2019-03-03T13:38:32.294Z,11.95
2019-03-03T13:43:37.118Z,11.65
2019-03-03T13:48:41.948Z,15.88
2019-03-03T13:53:47.194Z,12.18
2019-03-03T13:58:52.154Z,14.30
2019-03-03T14:03:56.966Z,9.18
2019-03-03T14:09:01.735Z,10.63
2019-03-03T14:14:08.630Z,9.65
2019-03-03T14:19:13.521Z,11.28
2019-03-03T14:24:18.275Z,8.90
2019-03-03T14:29:24.620Z,7.55
2019-03-03T14:34:46.816Z,17.50
2019-03-03T14:39:51.601Z,16.70
2019-03-03T14:44:56.358Z,13.53
2019-03-03T14:50:01.429Z,9.00
2019-03-03T14:55:08.757Z,10.88
2019-03-03T15:00:31.369Z,16.77
2019-03-03T15:05:38.303Z,10.27
2019-03-03T15:10:43.771Z,12.87
2019-03-03T15:15:48.561Z,13.55
2019-03-03T15:20:53.436Z,13.05
2019-03-03T15:25:59.674Z,11.38
2019-03-03T15:31:04.738Z,11.60
2019-03-03T15:36:09.569Z,11.00
2019-03-03T15:41:14.433Z,12.07
2019-03-03T15:46:19.285Z,15.37
2019-03-03T15:51:24.109Z,13.30
2019-03-03T15:56:29.326Z,13.83
2019-03-03T16:01:34.179Z,20.53
2019-03-03T16:06:38.998Z,14.13
2019-03-03T16:11:43.919Z,16.77
2019-03-03T16:16:48.670Z,17.37
2019-03-03T16:21:53.587Z,13.20
2019-03-03T16:26:58.451Z,17.20
2019-03-03T16:32:03.247Z,15.80
2019-03-03T16:37:08.319Z,15.43
2019-03-03T16:42:13.124Z,16.63
2019-03-03T16:47:19.328Z,11.67
2019-03-03T16:52:24.466Z,14.03
2019-03-03T16:57:29.262Z,19.30
2019-03-03T17:02:34.378Z,23.87
2019-03-03T17:07:39.478Z,16.83
2019-03-03T17:12:44.649Z,14.60
2019-03-03T17:17:49.782Z,18.80
2019-03-03T17:22:54.516Z,17.30
2019-03-03T17:27:59.323Z,20.23
2019-03-03T17:33:04.585Z,17.67
2019-03-03T17:38:09.351Z,15.67
2019-03-03T17:43:14.073Z,17.57
2019-03-03T17:48:19.046Z,12.30
2019-03-03T17:53:23.797Z,17.70
2019-03-03T17:58:28.798Z,13.03
2019-03-03T18:03:33.505Z,12.70
2019-03-03T18:08:38.282Z,14.73
2019-03-03T18:13:43.025Z,12.60
2019-03-03T18:18:47.789Z,7.87
2019-03-03T18:23:52.562Z,10.23
2019-03-03T18:28:57.348Z,14.57
2019-03-03T18:34:02.705Z,12.27
2019-03-03T18:39:08.250Z,14.07
2019-03-03T18:44:14.317Z,13.57
2019-03-03T18:49:19.097Z,12.97
2019-03-03T18:54:23.883Z,13.07
2019-03-03T18:59:28.707Z,13.30
2019-03-03T19:04:33.719Z,10.30
2019-03-03T19:09:38.518Z,6.57
2019-03-03T19:14:43.274Z,9.80
2019-03-03T19:19:48.033Z,8.67
2019-03-03T19:24:53.838Z,13.57
2019-03-03T19:29:58.481Z,7.13
2019-03-03T19:35:03.302Z,12.23
2019-03-03T19:40:09.027Z,16.63
2019-03-03T19:45:20.148Z,10.75
2019-03-03T19:50:25.062Z,8.35
2019-03-03T19:55:30.024Z,11.00
2019-03-03T20:00:38.546Z,11.00
2019-03-03T20:05:41.641Z,12.90
2019-03-03T20:10:46.448Z,8.77
2019-03-03T20:15:51.338Z,8.40
2019-03-03T20:20:56.058Z,15.60
2019-03-03T20:26:00.887Z,9.37
2019-03-03T20:31:06.001Z,9.83
2019-03-03T20:36:10.751Z,11.73
2019-03-03T20:41:15.478Z,11.08
2019-03-03T20:46:20.511Z,11.57
2019-03-03T20:51:25.568Z,8.10
2019-03-03T20:56:30.701Z,11.43
2019-03-03T21:01:35.511Z,12.97
2019-03-03T21:06:40.540Z,13.03
2019-03-03T21:11:45.330Z,7.87
2019-03-03T21:16:50.079Z,8.43
2019-03-03T21:21:54.913Z,8.20
2019-03-03T21:26:59.639Z,13.30
2019-03-03T21:32:04.668Z,12.75
2019-03-03T21:37:09.463Z,9.93
2019-03-03T21:42:14.275Z,9.47
2019-03-03T21:47:19.008Z,8.63
2019-03-03T21:52:23.766Z,11.48
2019-03-03T21:57:28.784Z,9.75
2019-03-03T22:02:33.541Z,6.77
2019-03-03T22:07:38.390Z,8.83
2019-03-03T22:12:43.297Z,9.63
2019-03-03T22:17:48.091Z,12.50
2019-03-03T22:22:55.916Z,9.27
2019-03-03T22:28:00.907Z,10.30
2019-03-03T22:33:05.639Z,11.07
2019-03-03T22:38:11.255Z,9.88
2019-03-03T22:43:15.987Z,7.87
2019-03-03T22:48:21.056Z,9.93
2019-03-03T22:53:26.066Z,10.27
2019-03-03T22:58:31.168Z,7.07
2019-03-03T23:03:43.285Z,10.65
2019-03-03T23:09:19.406Z,8.00
2019-03-03T23:14:44.632Z,8.37
2019-03-03T23:20:15.376Z,10.05
2019-03-03T23:25:52.268Z,12.30
2019-03-03T23:30:57.732Z,9.47
2019-03-03T23:36:02.604Z,8.73
2019-03-03T23:41:07.589Z,6.03
2019-03-03T23:46:12.354Z,7.10
2019-03-03T23:51:17.060Z,8.93
2019-03-03T23:56:21.742Z,8.47
